Altus, Arkansas
Current Conditions -  °F | °C
As of 6:53 AM on Friday 19 Dec 2014 (Local Time) from KFSM Reporting Station
Haze Haze  
Wind Chill: 36°   Ceiling: 600
Heat Index: 41°   Visibility: 6mi
Dew Point: 38°   Wind: 8mph
Humidity: 89%   Direction: 50°NE
Pressure: 30.23"   Gusts: NA
Location:  35.45°N, 93.76°W
Report Text: KFSM 191253Z 05007KT 6SM BR OVC006 05/03 A3023 RMK AO2 SLP238 T00500033
Loading
Personal Weather Stations






























Interactive Weather Map New forecast layout! Learn more

10-Day Weather Forecast

Advertisements
Track Severe Weather on mobile